Portada
METAR-TAF:

METAR-TAF

Aeroports :

RAF

Spadeadam, Anglaterra

latitud: 55-03N, longitud: 002-33W, altitud: 325 m

Observació

L'informe es va fer fa 22 minuts, a les 09:50 UTC
Vent 14 kt del Oest/Sud-Oest
Temperatura 13°C
Humitat 94%
Pressió 1017 hPa
Visibilitat 10 km o més
Cel ennuvolat a una alçada de 1100 ft

METAR: EGOM 220950Z 24014KT 9999 BKN011 13/12 Q1017 GRN

Hora: 11:12 (10:12 UTC)


TAF: manca

Observacions i pronòstics meteorològics de més de 4000 aeroports (METAR i TAF).

Les estacions disponibles són els punts grocs i vermells al mapa.

Posi el ratolí al punt desitjat per veure el nom de l'estació.

Feu clic per veure les observacions i els pronòstics meteorològics.

Per canviar el mapa: feu clic els botons verds amb una creu de color negre per apropar; al botó verd amb un guió per allunyar la imatge; o en les fletxes verdes per a mapes adjacents.


METAR-TAF: